createdAt,value
2023-05-09T00:00:46.065Z,99.90
2023-05-09T00:03:14.264Z,99.90
2023-05-09T00:05:41.710Z,99.90
2023-05-09T00:08:11.068Z,99.90
2023-05-09T00:10:39.864Z,99.90
2023-05-09T00:13:07.171Z,99.90
2023-05-09T00:15:34.006Z,99.90
2023-05-09T00:18:03.210Z,99.90
2023-05-09T00:20:30.034Z,99.90
2023-05-09T00:22:57.124Z,99.90
2023-05-09T00:25:23.971Z,99.90
2023-05-09T00:27:50.682Z,99.90
2023-05-09T00:30:17.393Z,99.90
2023-05-09T00:32:46.598Z,99.90
2023-05-09T00:35:16.226Z,99.90
2023-05-09T00:37:43.116Z,99.90
2023-05-09T00:40:10.246Z,99.90
2023-05-09T00:42:37.015Z,99.90
2023-05-09T00:45:09.058Z,99.90
2023-05-09T00:50:03.621Z,99.90
2023-05-09T00:52:32.989Z,99.90
2023-05-09T00:55:02.864Z,99.90
2023-05-09T00:57:34.173Z,99.90
2023-05-09T01:00:01.494Z,99.90
2023-05-09T01:02:31.594Z,99.90
2023-05-09T01:05:01.288Z,99.90
2023-05-09T01:07:45.945Z,99.90
2023-05-09T01:10:45.556Z,99.90
2023-05-09T01:13:47.136Z,99.90
2023-05-09T01:16:25.231Z,99.90
2023-05-09T01:19:00.898Z,99.90
2023-05-09T01:21:30.482Z,99.90
2023-05-09T01:24:39.945Z,99.90
2023-05-09T01:27:15.963Z,99.90
2023-05-09T01:30:00.201Z,99.90
2023-05-09T01:32:32.051Z,99.90
2023-05-09T01:35:05.042Z,99.90
2023-05-09T01:37:34.603Z,99.90
2023-05-09T01:40:07.229Z,99.90
2023-05-09T01:42:49.570Z,99.90
2023-05-09T01:45:22.167Z,99.90
2023-05-09T01:47:50.101Z,99.90
2023-05-09T01:50:19.911Z,99.90
2023-05-09T01:52:53.133Z,99.90
2023-05-09T01:55:22.753Z,99.90
2023-05-09T01:57:55.891Z,99.90
2023-05-09T02:00:26.478Z,99.90
2023-05-09T02:02:57.532Z,99.90
2023-05-09T02:05:29.420Z,99.90
2023-05-09T02:07:59.859Z,99.90
2023-05-09T02:10:32.699Z,99.90
2023-05-09T02:15:27.359Z,99.90
2023-05-09T02:17:54.102Z,99.90
2023-05-09T02:20:21.007Z,99.90
2023-05-09T02:22:48.432Z,99.90
2023-05-09T02:25:18.635Z,99.90
2023-05-09T02:27:46.753Z,99.90
2023-05-09T02:30:20.643Z,99.90
2023-05-09T02:32:49.223Z,99.90
2023-05-09T02:35:17.649Z,99.90
2023-05-09T02:37:47.856Z,99.90
2023-05-09T02:42:41.912Z,99.90
2023-05-09T02:45:11.133Z,99.90
2023-05-09T02:47:39.139Z,99.90
2023-05-09T02:50:06.644Z,99.90
2023-05-09T02:52:37.979Z,99.90
2023-05-09T02:55:07.781Z,99.90
2023-05-09T02:57:34.486Z,99.90
2023-05-09T03:00:01.260Z,99.90
2023-05-09T03:02:30.822Z,99.90
2023-05-09T03:04:57.624Z,99.90
2023-05-09T03:07:24.325Z,99.90
2023-05-09T03:09:53.255Z,99.90
2023-05-09T03:12:20.002Z,99.90
2023-05-09T03:14:47.021Z,99.90
2023-05-09T03:19:44.049Z,99.90
2023-05-09T03:22:12.988Z,99.90
2023-05-09T03:24:39.674Z,99.90
2023-05-09T03:27:06.968Z,99.90
2023-05-09T03:29:33.648Z,99.90
2023-05-09T03:32:05.152Z,99.90
2023-05-09T03:34:34.368Z,99.90
2023-05-09T03:37:05.787Z,99.90
2023-05-09T03:39:34.640Z,99.90
2023-05-09T03:42:03.475Z,99.90
2023-05-09T03:44:30.196Z,99.90
2023-05-09T03:46:59.405Z,99.90
2023-05-09T03:51:53.782Z,99.90
2023-05-09T03:54:20.647Z,99.90
2023-05-09T03:56:47.427Z,99.90
2023-05-09T03:59:16.357Z,99.90
2023-05-09T04:01:43.170Z,99.90
2023-05-09T04:04:12.363Z,99.90
2023-05-09T04:06:39.880Z,99.90
2023-05-09T04:09:09.345Z,99.90
2023-05-09T04:16:36.204Z,99.90
2023-05-09T04:19:07.182Z,99.90
2023-05-09T04:21:36.054Z,99.90
2023-05-09T04:24:07.900Z,99.90
2023-05-09T04:26:38.415Z,99.90
2023-05-09T04:29:07.475Z,99.90
2023-05-09T04:34:06.442Z,99.90
2023-05-09T04:36:33.884Z,99.90
2023-05-09T04:39:00.788Z,99.90
2023-05-09T04:41:32.402Z,99.90
2023-05-09T04:44:01.973Z,99.90
2023-05-09T04:48:58.013Z,99.90
2023-05-09T04:51:24.685Z,99.90
2023-05-09T04:53:51.678Z,99.90
2023-05-09T04:56:18.325Z,99.90
2023-05-09T04:58:44.986Z,99.90
2023-05-09T05:01:11.681Z,99.90
2023-05-09T05:03:43.064Z,99.90
2023-05-09T05:06:09.823Z,99.90
2023-05-09T05:08:38.780Z,99.90
2023-05-09T05:13:32.783Z,99.90
2023-05-09T05:15:59.531Z,99.90
2023-05-09T05:18:28.723Z,99.90
2023-05-09T05:20:55.559Z,99.90
2023-05-09T05:23:22.327Z,99.90
2023-05-09T05:25:49.065Z,99.90
2023-05-09T05:28:15.742Z,99.90
2023-05-09T05:30:44.861Z,99.90
2023-05-09T05:33:11.659Z,99.90
2023-05-09T05:35:41.020Z,99.90
2023-05-09T05:38:07.683Z,99.90
2023-05-09T05:40:34.425Z,99.90
2023-05-09T05:43:03.664Z,99.90
2023-05-09T05:45:30.941Z,99.90
2023-05-09T05:48:00.050Z,99.90
2023-05-09T05:50:26.928Z,99.90
2023-05-09T05:52:55.906Z,99.90
2023-05-09T05:55:27.026Z,99.90
2023-05-09T05:57:55.974Z,99.90
2023-05-09T06:00:22.869Z,99.90
2023-05-09T06:02:49.627Z,99.90
2023-05-09T06:05:18.891Z,99.90
2023-05-09T06:07:50.359Z,99.90
2023-05-09T06:10:19.215Z,99.90
2023-05-09T06:12:45.915Z,99.90
2023-05-09T06:15:12.844Z,99.90
2023-05-09T06:17:40.022Z,99.90
2023-05-09T06:20:07.418Z,99.90
2023-05-09T06:22:36.347Z,99.90
2023-05-09T06:25:03.284Z,99.90
2023-05-09T06:27:30.103Z,99.90
2023-05-09T06:29:56.782Z,99.90
2023-05-09T06:34:56.385Z,99.90
2023-05-09T06:42:17.695Z,99.90
2023-05-09T06:44:51.671Z,99.90
2023-05-09T06:47:18.388Z,99.90
2023-05-09T06:49:45.113Z,99.90
2023-05-09T06:52:15.716Z,99.90
2023-05-09T06:54:42.525Z,99.90
2023-05-09T06:57:11.522Z,99.90
2023-05-09T06:59:38.258Z,99.90
2023-05-09T07:02:07.360Z,99.90
2023-05-09T07:04:39.053Z,99.90
2023-05-09T07:07:12.743Z,99.90
2023-05-09T07:09:41.564Z,99.90
2023-05-09T07:12:10.609Z,99.90
2023-05-09T07:14:37.340Z,99.90
2023-05-09T07:19:51.862Z,99.90
2023-05-09T07:22:20.955Z,99.90
2023-05-09T07:24:47.860Z,99.90
2023-05-09T07:27:14.560Z,99.90
2023-05-09T07:29:43.763Z,99.90
2023-05-09T07:32:13.153Z,99.90
2023-05-09T07:34:40.046Z,99.90
2023-05-09T07:37:06.775Z,99.90
2023-05-09T07:39:33.491Z,99.90
2023-05-09T07:42:00.196Z,99.90
2023-05-09T07:44:26.879Z,99.90
2023-05-09T07:46:55.442Z,99.90
2023-05-09T07:49:24.588Z,99.90
2023-05-09T07:51:51.427Z,99.90
2023-05-09T07:54:18.089Z,99.90
2023-05-09T07:56:44.726Z,99.90
2023-05-09T07:59:12.237Z,99.90
2023-05-09T08:01:41.168Z,99.90
2023-05-09T08:04:10.308Z,99.90
2023-05-09T08:06:37.224Z,99.90
2023-05-09T08:09:04.852Z,99.90
2023-05-09T08:11:35.913Z,99.90
2023-05-09T08:14:04.959Z,99.90
2023-05-09T08:16:31.747Z,99.90
2023-05-09T08:18:58.534Z,99.90
2023-05-09T08:21:30.252Z,99.90
2023-05-09T08:24:01.853Z,99.90
2023-05-09T08:26:33.525Z,99.90
2023-05-09T08:29:00.861Z,99.90
2023-05-09T08:33:57.863Z,99.90
2023-05-09T08:36:24.962Z,99.90
2023-05-09T08:38:51.630Z,99.90
2023-05-09T08:43:48.807Z,99.90
2023-05-09T08:46:17.842Z,99.90
2023-05-09T08:48:44.885Z,99.90
2023-05-09T08:51:16.007Z,99.90
2023-05-09T08:53:43.805Z,99.90
2023-05-09T08:56:10.712Z,99.90
2023-05-09T08:58:38.586Z,99.90
2023-05-09T09:01:07.868Z,99.90
2023-05-09T09:03:36.544Z,99.90
2023-05-09T09:06:03.546Z,99.90
2023-05-09T09:08:30.582Z,99.90
2023-05-09T09:10:57.680Z,99.90
2023-05-09T09:13:27.569Z,99.90
2023-05-09T09:15:58.384Z,99.90
2023-05-09T09:18:29.843Z,99.90
2023-05-09T09:20:59.277Z,99.90
2023-05-09T09:23:27.214Z,99.90
2023-05-09T09:25:59.954Z,99.90
2023-05-09T09:28:27.361Z,99.50
2023-05-09T09:30:54.258Z,99.70
2023-05-09T09:33:24.883Z,99.20
2023-05-09T09:35:54.376Z,98.00
2023-05-09T09:38:24.643Z,97.30
2023-05-09T09:40:55.842Z,96.80
2023-05-09T09:43:32.296Z,96.50
2023-05-09T09:46:07.894Z,95.50
2023-05-09T09:48:35.595Z,95.90
2023-05-09T09:51:10.779Z,96.00
2023-05-09T09:53:44.443Z,96.50
2023-05-09T09:56:11.747Z,97.30
2023-05-09T09:58:39.017Z,97.20
2023-05-09T10:01:10.238Z,97.20
2023-05-09T10:03:44.065Z,97.00
2023-05-09T10:06:16.012Z,97.90
2023-05-09T10:08:44.148Z,97.60
2023-05-09T10:11:11.186Z,97.80
2023-05-09T10:13:40.455Z,97.70
2023-05-09T10:16:11.942Z,98.70
2023-05-09T10:18:42.434Z,99.80
2023-05-09T10:21:14.644Z,99.60
2023-05-09T10:23:47.139Z,99.90
2023-05-09T10:26:20.981Z,99.90
2023-05-09T10:28:54.327Z,99.90
2023-05-09T10:31:31.935Z,99.90
2023-05-09T10:34:02.038Z,99.90
2023-05-09T10:36:31.231Z,99.90
2023-05-09T10:38:58.303Z,99.30
2023-05-09T10:41:25.727Z,98.20
2023-05-09T10:43:55.554Z,97.50
2023-05-09T10:48:52.513Z,95.80
2023-05-09T10:51:21.539Z,95.80
2023-05-09T10:53:50.273Z,95.70
2023-05-09T10:56:39.795Z,96.20
2023-05-09T10:59:06.622Z,95.40
2023-05-09T11:01:37.256Z,94.70
2023-05-09T11:04:16.594Z,94.60
2023-05-09T11:06:51.241Z,94.10
2023-05-09T11:09:37.103Z,93.90
2023-05-09T11:12:15.417Z,93.80
2023-05-09T11:14:47.276Z,92.00
2023-05-09T11:17:23.028Z,92.30
2023-05-09T11:19:49.785Z,92.20
2023-05-09T11:22:32.237Z,92.30
2023-05-09T11:25:04.651Z,92.30
2023-05-09T11:27:52.149Z,91.90
2023-05-09T11:30:22.017Z,90.20
2023-05-09T11:32:55.806Z,90.90
2023-05-09T11:35:24.147Z,90.70
2023-05-09T11:38:09.132Z,89.50
2023-05-09T11:40:35.918Z,89.30
2023-05-09T11:43:02.899Z,88.70
2023-05-09T11:45:31.584Z,87.70
2023-05-09T11:47:58.933Z,86.90
2023-05-09T11:50:25.796Z,85.70
2023-05-09T11:52:53.864Z,86.80
2023-05-09T11:55:22.694Z,87.20
2023-05-09T11:57:52.210Z,86.90
2023-05-09T12:00:23.362Z,86.80
2023-05-09T12:02:51.290Z,88.00
2023-05-09T12:05:20.148Z,87.20
2023-05-09T12:07:49.595Z,86.80
2023-05-09T12:10:22.890Z,86.60
2023-05-09T12:12:55.388Z,86.90
2023-05-09T12:15:22.539Z,87.10
2023-05-09T12:18:03.039Z,87.60
2023-05-09T12:20:47.369Z,87.80
2023-05-09T12:23:15.312Z,87.40
2023-05-09T12:26:08.648Z,88.00
2023-05-09T12:28:37.869Z,87.30
2023-05-09T12:31:05.766Z,86.60
2023-05-09T12:33:32.758Z,86.70
2023-05-09T12:36:13.133Z,85.60
2023-05-09T12:38:40.246Z,85.80
2023-05-09T12:41:29.906Z,85.30
2023-05-09T12:44:00.297Z,85.90
2023-05-09T12:46:29.478Z,84.20
2023-05-09T12:48:58.555Z,84.30
2023-05-09T12:51:27.950Z,85.00
2023-05-09T12:53:54.760Z,85.10
2023-05-09T12:56:28.727Z,85.90
2023-05-09T12:58:55.971Z,84.60
2023-05-09T13:01:28.108Z,83.90
2023-05-09T13:04:05.793Z,86.80
2023-05-09T13:06:33.102Z,86.70
2023-05-09T13:09:05.434Z,86.70
2023-05-09T13:11:34.558Z,86.40
2023-05-09T13:14:04.064Z,86.80
2023-05-09T13:16:31.006Z,86.70
2023-05-09T13:18:57.786Z,87.10
2023-05-09T13:21:24.550Z,88.10
2023-05-09T13:23:52.032Z,87.10
2023-05-09T13:26:18.799Z,88.10
2023-05-09T13:28:45.686Z,88.00
2023-05-09T13:31:12.445Z,88.70
2023-05-09T13:33:39.780Z,90.00
2023-05-09T13:36:07.159Z,88.80
2023-05-09T13:38:40.263Z,89.60
2023-05-09T13:41:07.491Z,89.70
2023-05-09T13:43:34.486Z,90.20
2023-05-09T13:46:01.204Z,89.10
2023-05-09T13:48:30.211Z,89.10
2023-05-09T13:50:57.759Z,89.00
2023-05-09T13:55:55.876Z,87.40
2023-05-09T13:58:22.728Z,90.20
2023-05-09T14:00:49.453Z,90.30
2023-05-09T14:03:16.634Z,90.20
2023-05-09T14:05:43.406Z,88.30
2023-05-09T14:08:12.216Z,90.40
2023-05-09T14:10:38.909Z,91.20
2023-05-09T14:13:08.350Z,92.30
2023-05-09T14:15:35.444Z,92.60
2023-05-09T14:18:04.643Z,93.60
2023-05-09T14:20:31.330Z,94.30
2023-05-09T14:23:00.617Z,94.70
2023-05-09T14:25:27.356Z,95.20
2023-05-09T14:27:54.293Z,95.50
2023-05-09T14:32:48.335Z,96.40
2023-05-09T14:35:17.505Z,96.20
2023-05-09T14:37:44.257Z,96.00
2023-05-09T14:40:11.467Z,96.30
2023-05-09T14:42:38.206Z,96.20
2023-05-09T14:45:07.124Z,95.80
2023-05-09T14:47:34.331Z,95.90
2023-05-09T14:50:01.324Z,96.10
2023-05-09T14:52:30.394Z,96.60
2023-05-09T14:54:57.096Z,96.40
2023-05-09T14:57:23.868Z,96.70
2023-05-09T14:59:50.578Z,96.70
2023-05-09T15:02:17.296Z,96.30
2023-05-09T15:04:46.170Z,96.50
2023-05-09T15:07:13.295Z,96.70
2023-05-09T15:09:40.103Z,96.70
2023-05-09T15:12:06.869Z,97.20
2023-05-09T15:14:33.560Z,97.30
2023-05-09T15:17:03.267Z,97.50
2023-05-09T15:19:33.946Z,98.20
2023-05-09T15:22:00.856Z,98.50
2023-05-09T15:24:27.545Z,99.20
2023-05-09T15:26:54.290Z,99.90
2023-05-09T15:31:51.230Z,99.70
2023-05-09T15:36:45.107Z,99.90
2023-05-09T15:39:11.771Z,99.90
2023-05-09T15:41:38.435Z,99.90
2023-05-09T15:44:05.327Z,99.90
2023-05-09T15:46:34.470Z,99.90
2023-05-09T15:49:01.202Z,99.90
2023-05-09T15:51:32.561Z,99.90
2023-05-09T15:53:59.297Z,99.90
2023-05-09T15:56:26.014Z,99.90
2023-05-09T15:58:54.919Z,99.90
2023-05-09T16:01:21.813Z,99.90
2023-05-09T16:03:48.643Z,99.90
2023-05-09T16:06:15.584Z,99.90
2023-05-09T16:08:42.321Z,99.90
2023-05-09T16:11:09.807Z,99.90
2023-05-09T16:16:06.382Z,99.90
2023-05-09T16:21:05.293Z,99.90
2023-05-09T16:23:31.986Z,99.90
2023-05-09T16:26:00.959Z,99.90
2023-05-09T16:28:28.059Z,99.90
2023-05-09T16:30:57.255Z,99.90
2023-05-09T16:33:24.031Z,99.90
2023-05-09T16:35:51.348Z,99.90
2023-05-09T16:38:18.912Z,99.90
2023-05-09T16:40:45.660Z,99.90
2023-05-09T16:45:39.430Z,99.90
2023-05-09T16:48:10.974Z,99.90
2023-05-09T16:50:38.356Z,99.90
2023-05-09T16:55:32.204Z,99.90
2023-05-09T16:57:58.900Z,99.90
2023-05-09T17:00:28.822Z,99.90
2023-05-09T17:02:58.235Z,99.90
2023-05-09T17:05:25.112Z,99.90
2023-05-09T17:07:57.131Z,99.90
2023-05-09T17:10:26.455Z,99.90
2023-05-09T17:12:54.606Z,99.90
2023-05-09T17:15:21.488Z,99.90
2023-05-09T17:17:48.214Z,99.90
2023-05-09T17:22:48.940Z,99.90
2023-05-09T17:27:43.642Z,99.90
2023-05-09T17:30:10.542Z,99.90
2023-05-09T17:32:42.276Z,99.90
2023-05-09T17:35:10.010Z,99.90
2023-05-09T17:37:36.768Z,99.90
2023-05-09T17:40:05.077Z,99.90
2023-05-09T17:42:32.128Z,99.90
2023-05-09T17:45:03.723Z,99.90
2023-05-09T17:47:30.410Z,99.90
2023-05-09T17:49:57.107Z,99.90
2023-05-09T17:52:26.893Z,99.90
2023-05-09T17:54:56.204Z,99.90
2023-05-09T17:57:22.901Z,99.90
2023-05-09T17:59:52.065Z,99.90
2023-05-09T18:02:23.828Z,99.90
2023-05-09T18:04:54.401Z,99.90
2023-05-09T18:07:21.196Z,99.90
2023-05-09T18:09:47.909Z,99.90
2023-05-09T18:12:14.571Z,99.90
2023-05-09T18:14:43.670Z,99.90
2023-05-09T18:17:10.409Z,99.90
2023-05-09T18:19:37.357Z,99.90
2023-05-09T18:22:06.653Z,99.90
2023-05-09T18:24:36.635Z,99.90
2023-05-09T18:27:03.424Z,99.90
2023-05-09T18:29:30.344Z,99.90
2023-05-09T18:31:57.546Z,99.90
2023-05-09T18:34:25.638Z,99.90
2023-05-09T18:36:54.873Z,99.90
2023-05-09T18:39:21.572Z,99.90
2023-05-09T18:44:15.582Z,99.90
2023-05-09T18:46:42.459Z,99.90
2023-05-09T18:49:09.575Z,99.90
2023-05-09T18:51:38.762Z,99.90
2023-05-09T18:54:08.162Z,99.90
2023-05-09T18:56:39.256Z,99.90
2023-05-09T18:59:11.917Z,99.90
2023-05-09T19:01:38.818Z,99.90
2023-05-09T19:06:39.730Z,99.90
2023-05-09T19:09:06.482Z,99.90
2023-05-09T19:11:33.233Z,99.90
2023-05-09T19:14:00.097Z,99.90
2023-05-09T19:16:29.499Z,99.90
2023-05-09T19:18:59.390Z,99.90
2023-05-09T19:21:26.322Z,99.90
2023-05-09T19:26:21.673Z,99.90
2023-05-09T19:28:50.924Z,99.90
2023-05-09T19:31:18.809Z,99.90
2023-05-09T19:33:47.582Z,99.90
2023-05-09T19:36:14.417Z,99.90
2023-05-09T19:38:41.304Z,99.90
2023-05-09T19:43:37.540Z,99.90
2023-05-09T19:46:04.275Z,99.90
2023-05-09T19:48:31.027Z,99.90
2023-05-09T19:50:58.735Z,99.90
2023-05-09T19:53:27.728Z,99.90
2023-05-09T19:55:54.392Z,99.90
2023-05-09T19:58:21.057Z,99.90
2023-05-09T20:00:48.667Z,99.90
2023-05-09T20:03:17.721Z,99.90
2023-05-09T20:05:44.424Z,99.90
2023-05-09T20:08:11.128Z,99.90
2023-05-09T20:10:37.852Z,99.90
2023-05-09T20:13:04.714Z,99.90
2023-05-09T20:15:34.096Z,99.90
2023-05-09T20:18:03.564Z,99.90
2023-05-09T20:20:32.291Z,99.90
2023-05-09T20:22:59.071Z,99.90
2023-05-09T20:25:25.780Z,99.90
2023-05-09T20:27:54.662Z,99.90
2023-05-09T20:30:23.484Z,99.90
2023-05-09T20:35:17.564Z,99.90
2023-05-09T20:37:44.350Z,99.90
2023-05-09T20:40:11.360Z,99.90
2023-05-09T20:42:38.053Z,99.90
2023-05-09T20:45:05.364Z,99.90
2023-05-09T20:47:34.590Z,99.90
2023-05-09T20:50:03.745Z,99.90
2023-05-09T20:52:30.573Z,99.90
2023-05-09T20:57:28.282Z,99.90
2023-05-09T20:59:57.542Z,99.90
2023-05-09T21:02:24.279Z,99.90
2023-05-09T21:04:50.958Z,99.90
2023-05-09T21:07:19.970Z,99.90
2023-05-09T21:12:16.732Z,99.90
2023-05-09T21:14:44.774Z,99.90
2023-05-09T21:17:11.951Z,99.90
2023-05-09T21:19:38.731Z,99.90
2023-05-09T21:22:07.935Z,99.90
2023-05-09T21:24:34.725Z,99.90
2023-05-09T21:27:03.705Z,99.90
2023-05-09T21:29:30.421Z,99.90
2023-05-09T21:31:57.077Z,99.90
2023-05-09T21:34:23.749Z,99.90
2023-05-09T21:36:52.652Z,99.90
2023-05-09T21:39:21.800Z,99.90
2023-05-09T21:41:48.450Z,99.90
2023-05-09T21:44:15.202Z,99.90
2023-05-09T21:46:45.996Z,99.90
2023-05-09T21:49:16.927Z,99.90
2023-05-09T21:51:46.164Z,99.90
2023-05-09T21:54:13.112Z,99.90
2023-05-09T21:56:42.425Z,99.90
2023-05-09T21:59:09.486Z,99.90
2023-05-09T22:01:38.725Z,99.90
2023-05-09T22:04:08.374Z,99.90
2023-05-09T22:06:35.241Z,99.90
2023-05-09T22:09:01.975Z,99.90
2023-05-09T22:11:28.693Z,99.90
2023-05-09T22:13:57.502Z,99.90
2023-05-09T22:16:24.248Z,99.90
2023-05-09T22:18:53.332Z,99.90
2023-05-09T22:21:20.186Z,99.90
2023-05-09T22:23:49.123Z,99.90
2023-05-09T22:26:15.792Z,99.90
2023-05-09T22:28:42.795Z,99.90
2023-05-09T22:31:09.439Z,99.90
2023-05-09T22:33:40.943Z,99.90
2023-05-09T22:36:07.940Z,99.90
2023-05-09T22:38:34.592Z,99.90
2023-05-09T22:41:03.646Z,99.90
2023-05-09T22:43:38.705Z,99.90
2023-05-09T22:46:06.203Z,99.90
2023-05-09T22:48:33.024Z,99.90
2023-05-09T22:51:02.232Z,99.90
2023-05-09T22:53:31.270Z,99.90
2023-05-09T22:56:00.487Z,99.90
2023-05-09T22:58:29.697Z,99.90
2023-05-09T23:00:58.649Z,99.90
2023-05-09T23:03:25.460Z,99.90
2023-05-09T23:05:52.223Z,99.90
2023-05-09T23:08:21.428Z,99.90
2023-05-09T23:10:50.499Z,99.90
2023-05-09T23:13:19.498Z,99.90
2023-05-09T23:15:47.473Z,99.90
2023-05-09T23:18:16.763Z,99.90
2023-05-09T23:20:44.741Z,99.90
2023-05-09T23:23:11.481Z,99.90
2023-05-09T23:28:05.602Z,99.90
2023-05-09T23:30:34.555Z,99.90
2023-05-09T23:33:01.275Z,99.90
2023-05-09T23:35:30.353Z,99.90
2023-05-09T23:37:57.059Z,99.90
2023-05-09T23:40:23.742Z,99.90
2023-05-09T23:42:50.448Z,99.90
2023-05-09T23:45:19.596Z,99.90
2023-05-09T23:47:46.406Z,99.90
2023-05-09T23:50:13.370Z,99.90
2023-05-09T23:52:41.767Z,99.90
2023-05-09T23:55:11.694Z,99.90
2023-05-09T23:57:38.373Z,99.90
